createdAt,value
2018-06-21T00:01:26.904Z,62.63
2018-06-21T00:03:39.317Z,63.40
2018-06-21T00:05:51.854Z,63.17
2018-06-21T00:08:04.294Z,64.00
2018-06-21T00:10:16.650Z,64.58
2018-06-21T00:12:29.079Z,64.10
2018-06-21T00:14:41.431Z,64.39
2018-06-21T00:16:53.823Z,64.76
2018-06-21T00:19:06.440Z,64.25
2018-06-21T00:21:18.786Z,64.67
2018-06-21T00:23:31.244Z,64.04
2018-06-21T00:25:43.536Z,64.43
2018-06-21T00:27:56.062Z,64.87
2018-06-21T00:30:08.530Z,64.90
2018-06-21T00:32:21.347Z,65.77
2018-06-21T00:34:33.733Z,65.99
2018-06-21T00:36:46.109Z,65.05
2018-06-21T00:38:58.478Z,64.93
2018-06-21T00:41:10.990Z,65.05
2018-06-21T00:43:23.505Z,65.43
2018-06-21T00:45:35.974Z,64.69
2018-06-21T00:47:48.350Z,64.87
2018-06-21T00:50:00.786Z,66.10
2018-06-21T00:52:13.139Z,66.15
2018-06-21T00:54:25.766Z,65.29
2018-06-21T00:56:38.185Z,65.19
2018-06-21T00:58:50.721Z,65.01
2018-06-21T01:01:03.306Z,65.70
2018-06-21T01:03:15.660Z,65.70
2018-06-21T01:05:28.066Z,65.83
2018-06-21T01:07:40.674Z,65.56
2018-06-21T01:09:53.135Z,65.31
2018-06-21T01:12:05.596Z,66.21
2018-06-21T01:14:17.914Z,65.41
2018-06-21T01:16:30.293Z,65.80
2018-06-21T01:18:42.618Z,66.21
2018-06-21T01:20:55.058Z,65.79
2018-06-21T01:23:07.479Z,65.38
2018-06-21T01:25:19.816Z,66.17
2018-06-21T01:27:32.193Z,66.34
2018-06-21T01:29:44.593Z,66.55
2018-06-21T01:31:56.930Z,65.73
2018-06-21T01:34:09.331Z,66.37
2018-06-21T01:36:21.887Z,66.70
2018-06-21T01:38:34.277Z,66.70
2018-06-21T01:40:46.624Z,67.20
2018-06-21T01:42:58.943Z,67.23
2018-06-21T01:45:11.398Z,67.32
2018-06-21T01:47:23.702Z,67.29
2018-06-21T01:49:36.062Z,67.24
2018-06-21T01:51:48.466Z,67.58
2018-06-21T01:54:00.836Z,67.12
2018-06-21T01:56:13.146Z,67.13
2018-06-21T01:58:25.652Z,68.51
2018-06-21T02:00:38.038Z,67.73
2018-06-21T02:02:50.463Z,68.52
2018-06-21T02:05:02.946Z,67.38
2018-06-21T02:07:15.331Z,68.70
2018-06-21T02:09:27.659Z,67.81
2018-06-21T02:11:40.173Z,67.61
2018-06-21T02:13:52.551Z,68.24
2018-06-21T02:16:05.218Z,68.32
2018-06-21T02:18:17.613Z,67.80
2018-06-21T02:20:30.043Z,67.44
2018-06-21T02:22:42.525Z,68.53
2018-06-21T02:24:54.908Z,68.43
2018-06-21T02:27:07.418Z,68.59
2018-06-21T02:29:19.808Z,68.31
2018-06-21T02:31:32.240Z,68.05
2018-06-21T02:33:44.665Z,68.78
2018-06-21T02:35:57.074Z,68.58
2018-06-21T02:38:09.445Z,68.42
2018-06-21T02:40:23.272Z,68.67
2018-06-21T02:42:35.626Z,68.00
2018-06-21T02:44:48.113Z,67.88
2018-06-21T02:47:00.558Z,68.65
2018-06-21T02:49:13.057Z,68.59
2018-06-21T02:51:25.490Z,68.72
2018-06-21T02:53:37.820Z,68.95
2018-06-21T02:55:50.184Z,69.11
2018-06-21T02:58:02.815Z,68.92
2018-06-21T03:00:15.279Z,68.97
2018-06-21T03:02:27.670Z,69.04
2018-06-21T03:04:39.990Z,68.09
2018-06-21T03:06:52.351Z,68.92
2018-06-21T03:09:06.516Z,68.83
2018-06-21T03:11:18.853Z,69.25
2018-06-21T03:13:31.208Z,69.80
2018-06-21T03:15:43.613Z,69.20
2018-06-21T03:17:56.010Z,70.47
2018-06-21T03:20:08.355Z,69.71
2018-06-21T03:22:20.950Z,69.90
2018-06-21T03:24:33.350Z,70.65
2018-06-21T03:26:45.722Z,69.79
2018-06-21T03:28:58.090Z,70.99
2018-06-21T03:31:10.425Z,71.02
2018-06-21T03:33:22.894Z,70.09
2018-06-21T03:35:35.302Z,70.61
2018-06-21T03:37:47.698Z,69.87
2018-06-21T03:40:00.406Z,70.03
2018-06-21T03:42:12.760Z,70.66
2018-06-21T03:44:25.134Z,70.66
2018-06-21T03:46:37.571Z,70.08
2018-06-21T03:48:49.953Z,69.97
2018-06-21T03:51:02.382Z,70.79
2018-06-21T03:53:14.891Z,70.14
2018-06-21T03:55:27.258Z,69.77
2018-06-21T03:57:39.763Z,70.79
2018-06-21T03:59:52.129Z,70.55
2018-06-21T04:02:04.788Z,69.71
2018-06-21T04:04:17.107Z,70.23
2018-06-21T04:06:29.527Z,70.40
2018-06-21T04:08:41.878Z,70.34
2018-06-21T04:10:54.259Z,70.42
2018-06-21T04:13:06.685Z,69.71
2018-06-21T04:15:19.035Z,70.62
2018-06-21T04:17:31.601Z,70.56
2018-06-21T04:19:43.913Z,69.71
2018-06-21T04:21:56.261Z,70.66
2018-06-21T04:24:08.653Z,70.41
2018-06-21T04:26:21.368Z,69.29
2018-06-21T04:28:33.853Z,69.79
2018-06-21T04:30:46.255Z,69.07
2018-06-21T04:32:58.618Z,68.88
2018-06-21T04:35:11.138Z,68.48
2018-06-21T04:37:23.601Z,68.58
2018-06-21T04:39:35.972Z,68.75
2018-06-21T04:41:48.347Z,68.05
2018-06-21T04:44:00.984Z,67.63
2018-06-21T04:46:13.375Z,67.26
2018-06-21T04:48:25.778Z,67.20
2018-06-21T04:50:38.162Z,66.38
2018-06-21T04:52:50.509Z,66.90
2018-06-21T04:55:02.946Z,66.13
2018-06-21T04:57:15.390Z,66.63
2018-06-21T04:59:27.786Z,65.58
2018-06-21T05:01:40.210Z,65.36
2018-06-21T05:03:52.557Z,65.95
2018-06-21T05:06:05.099Z,65.53
2018-06-21T05:08:17.489Z,65.00
2018-06-21T05:10:29.868Z,63.98
2018-06-21T05:12:42.322Z,63.65
2018-06-21T05:14:54.706Z,63.44
2018-06-21T05:17:07.326Z,64.77
2018-06-21T05:19:19.858Z,64.80
2018-06-21T05:21:32.646Z,64.64
2018-06-21T05:23:45.313Z,62.74
2018-06-21T05:25:57.717Z,63.08
2018-06-21T05:28:10.106Z,62.71
2018-06-21T05:30:22.466Z,62.85
2018-06-21T05:32:34.818Z,62.51
2018-06-21T05:34:47.255Z,62.77
2018-06-21T05:36:59.694Z,61.53
2018-06-21T05:39:12.502Z,61.31
2018-06-21T05:41:24.883Z,62.08
2018-06-21T05:43:37.330Z,61.43
2018-06-21T05:45:49.745Z,61.51
2018-06-21T05:48:02.974Z,60.93
2018-06-21T05:50:15.367Z,59.46
2018-06-21T05:52:27.721Z,61.22
2018-06-21T05:54:40.130Z,60.18
2018-06-21T05:56:52.508Z,60.79
2018-06-21T05:59:04.847Z,59.48
2018-06-21T06:01:17.271Z,59.52
2018-06-21T06:03:29.872Z,59.76
2018-06-21T06:05:42.230Z,59.48
2018-06-21T06:07:54.638Z,57.93
2018-06-21T06:10:07.081Z,57.84
2018-06-21T06:12:19.487Z,56.45
2018-06-21T06:14:31.874Z,56.91
2018-06-21T06:16:44.258Z,56.67
2018-06-21T06:18:56.592Z,56.22
2018-06-21T06:21:09.006Z,56.16
2018-06-21T06:23:21.422Z,55.96
2018-06-21T06:25:33.923Z,56.11
2018-06-21T06:27:46.416Z,55.25
2018-06-21T06:29:58.897Z,55.45
2018-06-21T06:32:11.270Z,55.72
2018-06-21T06:34:23.663Z,55.61
2018-06-21T06:36:36.170Z,56.35
2018-06-21T06:38:48.698Z,55.54
2018-06-21T06:41:01.088Z,55.40
2018-06-21T06:43:13.499Z,54.50
2018-06-21T06:45:25.984Z,54.49
2018-06-21T06:47:38.315Z,54.86
2018-06-21T06:49:50.719Z,54.48
2018-06-21T06:52:03.213Z,54.52
2018-06-21T06:54:15.686Z,55.49
2018-06-21T06:56:28.026Z,53.54
2018-06-21T06:58:40.386Z,52.81
2018-06-21T07:00:52.990Z,52.74
2018-06-21T07:03:05.387Z,51.79
2018-06-21T07:05:17.814Z,51.16
2018-06-21T07:07:30.359Z,51.01
2018-06-21T07:09:42.709Z,51.47
2018-06-21T07:11:55.085Z,50.08
2018-06-21T07:14:07.588Z,49.96
2018-06-21T07:16:19.947Z,49.25
2018-06-21T07:18:32.315Z,48.13
2018-06-21T07:20:44.681Z,47.86
2018-06-21T07:22:57.170Z,47.42
2018-06-21T07:25:09.508Z,47.05
2018-06-21T07:27:21.976Z,48.35
2018-06-21T07:29:34.453Z,47.82
2018-06-21T07:31:46.867Z,46.93
2018-06-21T07:33:59.318Z,45.40
2018-06-21T07:36:11.730Z,45.80
2018-06-21T07:38:24.248Z,45.65
2018-06-21T07:40:36.609Z,45.22
2018-06-21T07:42:48.942Z,45.03
2018-06-21T07:45:01.442Z,44.04
2018-06-21T07:47:13.860Z,43.44
2018-06-21T07:49:26.310Z,43.37
2018-06-21T07:51:38.686Z,42.83
2018-06-21T07:53:51.135Z,42.63
2018-06-21T07:56:03.795Z,41.50
2018-06-21T07:58:16.243Z,41.63
2018-06-21T08:00:28.983Z,38.61
2018-06-21T08:02:41.555Z,37.87
2018-06-21T08:04:53.965Z,37.47
2018-06-21T08:07:06.359Z,37.85
2018-06-21T08:09:18.964Z,37.03
2018-06-21T08:11:31.368Z,36.15
2018-06-21T08:13:43.816Z,37.30
2018-06-21T08:15:56.166Z,36.42
2018-06-21T08:18:08.617Z,36.53
2018-06-21T08:20:21.147Z,36.78
2018-06-21T08:22:33.527Z,38.07
2018-06-21T08:24:45.941Z,37.17
2018-06-21T08:26:58.348Z,37.79
2018-06-21T08:29:11.002Z,38.02
2018-06-21T08:31:23.392Z,37.58
2018-06-21T08:33:35.764Z,37.47
2018-06-21T08:35:48.160Z,37.60
2018-06-21T08:38:00.765Z,38.82
2018-06-21T08:40:13.208Z,39.37
2018-06-21T08:42:25.572Z,39.85
2018-06-21T08:44:37.954Z,39.05
2018-06-21T08:46:50.377Z,40.36
2018-06-21T08:49:03.644Z,39.06
2018-06-21T08:51:16.746Z,40.53
2018-06-21T08:53:29.591Z,40.94
2018-06-21T08:55:42.835Z,42.02
2018-06-21T08:57:55.213Z,42.49
2018-06-21T09:00:07.750Z,43.24
2018-06-21T09:02:20.197Z,43.28
2018-06-21T09:04:33.485Z,42.30
2018-06-21T09:06:45.895Z,43.42
2018-06-21T09:08:58.946Z,42.14
2018-06-21T09:11:11.771Z,41.10
2018-06-21T09:13:30.990Z,41.82
2018-06-21T09:15:44.146Z,37.65
2018-06-21T09:17:57.443Z,37.09
2018-06-21T09:20:09.866Z,37.17
2018-06-21T09:22:22.245Z,36.46
2018-06-21T09:24:34.703Z,36.29
2018-06-21T09:26:47.062Z,36.01
2018-06-21T09:29:00.091Z,34.44
2018-06-21T09:31:12.498Z,35.34
2018-06-21T09:33:25.075Z,34.51
2018-06-21T09:35:37.462Z,34.53
2018-06-21T09:37:55.667Z,34.94
2018-06-21T09:40:13.628Z,36.26
2018-06-21T09:42:31.569Z,35.83
2018-06-21T09:44:50.642Z,35.49
2018-06-21T09:47:09.222Z,35.83
2018-06-21T09:49:27.217Z,35.95
2018-06-21T09:51:39.643Z,36.92
2018-06-21T09:53:52.152Z,37.52
2018-06-21T09:56:06.358Z,36.47
2018-06-21T09:58:19.108Z,35.96
2018-06-21T10:00:37.185Z,36.91
2018-06-21T10:02:49.554Z,36.66
2018-06-21T10:05:01.951Z,35.23
2018-06-21T10:07:14.615Z,35.02
2018-06-21T10:09:27.038Z,34.36
2018-06-21T10:11:40.330Z,33.95
2018-06-21T10:13:52.770Z,33.74
2018-06-21T10:16:05.458Z,34.62
2018-06-21T10:18:18.842Z,33.66
2018-06-21T10:20:31.943Z,34.31
2018-06-21T10:22:45.011Z,34.17
2018-06-21T10:24:58.310Z,34.81
2018-06-21T10:27:11.198Z,34.95
2018-06-21T10:29:23.651Z,35.04
2018-06-21T10:31:36.227Z,34.38
2018-06-21T10:33:48.632Z,34.22
2018-06-21T10:36:01.591Z,33.99
2018-06-21T10:38:14.786Z,32.39
2018-06-21T10:40:27.860Z,32.29
2018-06-21T10:42:41.325Z,33.71
2018-06-21T10:44:54.365Z,32.84
2018-06-21T10:47:07.006Z,31.97
2018-06-21T10:49:20.193Z,32.39
2018-06-21T10:51:33.606Z,32.55
2018-06-21T10:53:46.719Z,32.47
2018-06-21T10:55:59.110Z,32.74
2018-06-21T10:58:11.516Z,34.34
2018-06-21T11:00:24.548Z,34.50
2018-06-21T11:02:37.815Z,33.70
2018-06-21T11:04:50.400Z,33.19
2018-06-21T11:07:02.967Z,34.25
2018-06-21T11:09:16.175Z,33.75
2018-06-21T11:11:28.618Z,34.79
2018-06-21T11:13:41.045Z,34.33
2018-06-21T11:15:53.561Z,34.53
2018-06-21T11:18:07.070Z,33.06
2018-06-21T11:20:19.471Z,33.97
2018-06-21T11:22:31.934Z,33.94
2018-06-21T11:24:44.362Z,33.55
2018-06-21T11:26:56.843Z,31.01
2018-06-21T11:29:09.900Z,30.76
2018-06-21T11:31:23.601Z,31.59
2018-06-21T11:33:36.140Z,33.01
2018-06-21T11:35:49.279Z,34.11
2018-06-21T11:38:02.280Z,34.83
2018-06-21T11:40:14.745Z,34.14
2018-06-21T11:42:27.165Z,34.50
2018-06-21T11:44:39.561Z,35.23
2018-06-21T11:46:51.996Z,33.18
2018-06-21T11:49:05.118Z,32.86
2018-06-21T11:51:18.357Z,32.61
2018-06-21T11:53:30.759Z,32.15
2018-06-21T11:55:43.149Z,33.76
2018-06-21T11:57:55.549Z,32.30
2018-06-21T12:00:08.350Z,32.54
2018-06-21T12:02:20.961Z,32.91
2018-06-21T12:04:33.428Z,32.13
2018-06-21T12:06:45.866Z,33.05
2018-06-21T12:09:00.464Z,31.92
2018-06-21T12:11:13.000Z,33.25
2018-06-21T12:13:25.411Z,33.42
2018-06-21T12:15:38.901Z,33.14
2018-06-21T12:17:53.003Z,33.49
2018-06-21T12:20:05.510Z,34.02
2018-06-21T12:22:18.746Z,36.05
2018-06-21T12:24:31.217Z,34.99
2018-06-21T12:26:43.748Z,35.25
2018-06-21T12:28:56.738Z,36.97
2018-06-21T12:31:09.115Z,35.05
2018-06-21T12:33:22.897Z,36.57
2018-06-21T12:35:36.332Z,35.31
2018-06-21T12:37:49.752Z,36.88
2018-06-21T12:40:02.292Z,36.59
2018-06-21T12:42:14.676Z,37.21
2018-06-21T12:44:27.087Z,37.00
2018-06-21T12:46:39.545Z,37.34
2018-06-21T12:48:52.003Z,36.68
2018-06-21T12:51:04.415Z,36.46
2018-06-21T12:53:16.846Z,37.06
2018-06-21T12:55:29.268Z,38.26
2018-06-21T12:57:42.974Z,38.08
2018-06-21T12:59:55.960Z,37.99
2018-06-21T13:02:08.713Z,38.72
2018-06-21T13:04:21.180Z,38.30
2018-06-21T13:06:33.571Z,39.26
2018-06-21T13:08:57.484Z,37.88
2018-06-21T13:12:27.233Z,38.93
2018-06-21T13:14:39.979Z,39.45
2018-06-21T13:16:52.367Z,37.98
2018-06-21T13:19:04.941Z,38.61
2018-06-21T13:21:18.423Z,38.54
2018-06-21T13:23:30.819Z,38.17
2018-06-21T13:25:44.578Z,38.04
2018-06-21T13:27:57.727Z,37.44
2018-06-21T13:30:10.327Z,38.67
2018-06-21T13:32:23.445Z,36.40
2018-06-21T13:34:36.329Z,36.93
2018-06-21T13:36:48.924Z,35.71
2018-06-21T13:39:01.263Z,35.93
2018-06-21T13:41:13.683Z,37.13
2018-06-21T13:43:29.686Z,35.84
2018-06-21T13:45:43.020Z,35.38
2018-06-21T13:47:55.529Z,36.75
2018-06-21T13:50:08.576Z,35.80
2018-06-21T13:52:22.171Z,35.28
2018-06-21T13:54:34.736Z,36.57
2018-06-21T13:56:47.727Z,36.42
2018-06-21T13:59:00.249Z,37.34
2018-06-21T14:01:12.711Z,38.64
2018-06-21T14:03:25.043Z,40.15
2018-06-21T14:05:37.518Z,41.22
2018-06-21T14:07:51.665Z,41.37
2018-06-21T14:10:04.031Z,41.62
2018-06-21T14:12:16.559Z,42.85
2018-06-21T14:14:29.024Z,42.57
2018-06-21T14:16:41.438Z,43.91
2018-06-21T14:18:53.879Z,42.51
2018-06-21T14:21:06.635Z,43.68
2018-06-21T14:23:19.018Z,43.43
2018-06-21T14:25:31.580Z,43.32
2018-06-21T14:27:44.077Z,43.58
2018-06-21T14:29:56.474Z,43.61
2018-06-21T14:32:08.866Z,44.04
2018-06-21T14:34:21.239Z,45.07
2018-06-21T14:36:33.954Z,45.79
2018-06-21T14:38:47.219Z,44.87
2018-06-21T14:40:59.683Z,45.96
2018-06-21T14:43:12.068Z,45.51
2018-06-21T14:45:24.468Z,46.03
2018-06-21T14:47:36.893Z,45.56
2018-06-21T14:49:49.346Z,45.09
2018-06-21T14:52:01.766Z,46.11
2018-06-21T14:54:14.240Z,45.72
2018-06-21T14:56:26.626Z,45.73
2018-06-21T14:58:39.038Z,46.34
2018-06-21T15:00:51.666Z,45.76
2018-06-21T15:03:04.831Z,45.59
2018-06-21T15:05:17.257Z,46.36
2018-06-21T15:07:29.634Z,46.91
2018-06-21T15:09:41.985Z,47.31
2018-06-21T15:11:54.352Z,46.25
2018-06-21T15:14:06.770Z,46.12
2018-06-21T15:16:20.859Z,46.24
2018-06-21T15:18:33.246Z,47.10
2018-06-21T15:20:45.576Z,46.47
2018-06-21T15:22:58.073Z,45.64
2018-06-21T15:25:10.429Z,46.08
2018-06-21T15:27:22.786Z,47.04
2018-06-21T15:29:35.238Z,46.29
2018-06-21T15:31:48.602Z,47.42
2018-06-21T15:34:01.997Z,45.63
2018-06-21T15:36:14.382Z,46.03
2018-06-21T15:38:26.787Z,45.77
2018-06-21T15:40:40.136Z,46.61
2018-06-21T15:42:52.468Z,46.42
2018-06-21T15:45:04.918Z,46.05
2018-06-21T15:47:17.273Z,46.33
2018-06-21T15:49:29.706Z,46.15
2018-06-21T15:51:42.597Z,46.40
2018-06-21T15:53:55.064Z,46.66
2018-06-21T15:56:07.459Z,46.61
2018-06-21T15:58:19.991Z,46.77
2018-06-21T16:00:32.493Z,46.63
2018-06-21T16:02:44.943Z,47.44
2018-06-21T16:04:58.219Z,46.54
2018-06-21T16:07:11.310Z,46.81
2018-06-21T16:09:23.719Z,47.73
2018-06-21T16:11:36.126Z,47.81
2018-06-21T16:13:48.445Z,46.90
2018-06-21T16:16:00.904Z,47.89
2018-06-21T16:18:13.306Z,47.47
2018-06-21T16:20:25.824Z,47.48
2018-06-21T16:22:38.354Z,47.61
2018-06-21T16:24:50.736Z,48.50
2018-06-21T16:27:03.114Z,48.81
2018-06-21T16:29:15.505Z,48.87
2018-06-21T16:31:28.035Z,48.99
2018-06-21T16:33:40.559Z,48.65
2018-06-21T16:35:52.935Z,48.61
2018-06-21T16:38:06.257Z,49.29
2018-06-21T16:40:18.709Z,48.49
2018-06-21T16:42:31.303Z,49.07
2018-06-21T16:44:43.785Z,49.21
2018-06-21T16:46:56.151Z,50.62
2018-06-21T16:49:08.642Z,50.51
2018-06-21T16:51:20.999Z,50.55
2018-06-21T16:53:33.461Z,50.08
2018-06-21T16:55:46.057Z,52.48
2018-06-21T16:57:58.436Z,50.67
2018-06-21T17:00:10.894Z,50.15
2018-06-21T17:02:24.205Z,50.42
2018-06-21T17:04:36.740Z,48.23
2018-06-21T17:06:49.157Z,47.33
2018-06-21T17:09:01.467Z,46.83
2018-06-21T17:11:13.913Z,44.24
2018-06-21T17:13:27.331Z,44.08
2018-06-21T17:15:39.846Z,45.06
2018-06-21T17:17:52.271Z,42.73
2018-06-21T17:20:05.020Z,43.46
2018-06-21T17:22:17.612Z,43.47
2018-06-21T17:24:30.125Z,41.90
2018-06-21T17:26:42.578Z,41.50
2018-06-21T17:28:54.959Z,40.76
2018-06-21T17:31:07.363Z,40.18
2018-06-21T17:33:19.743Z,39.24
2018-06-21T17:35:32.122Z,38.64
2018-06-21T17:37:44.478Z,39.53
2018-06-21T17:39:57.956Z,39.17
2018-06-21T17:42:10.367Z,38.16
2018-06-21T17:44:22.719Z,37.70
2018-06-21T17:46:35.431Z,38.24
2018-06-21T17:48:48.261Z,38.73
2018-06-21T17:51:00.690Z,38.46
2018-06-21T17:53:13.344Z,38.83
2018-06-21T17:55:25.700Z,39.04
2018-06-21T17:57:38.170Z,38.48
2018-06-21T17:59:50.715Z,38.83
2018-06-21T18:02:03.140Z,39.18
2018-06-21T18:04:15.588Z,39.06
2018-06-21T18:06:28.061Z,38.79
2018-06-21T18:08:40.598Z,39.51
2018-06-21T18:10:53.055Z,38.75
2018-06-21T18:13:05.670Z,39.54
2018-06-21T18:15:18.113Z,39.44
2018-06-21T18:17:30.546Z,39.36
2018-06-21T18:19:43.128Z,38.35
2018-06-21T18:21:55.608Z,36.60
2018-06-21T18:24:07.997Z,38.48
2018-06-21T18:26:20.414Z,36.56
2018-06-21T18:28:32.851Z,37.88
2018-06-21T18:30:45.417Z,37.57
2018-06-21T18:32:57.814Z,35.23
2018-06-21T18:35:10.947Z,34.77
2018-06-21T18:37:23.790Z,34.49
2018-06-21T18:39:36.264Z,36.72
2018-06-21T18:41:48.713Z,35.88
2018-06-21T18:44:01.087Z,34.14
2018-06-21T18:46:13.703Z,36.98
2018-06-21T18:48:26.178Z,35.54
2018-06-21T18:50:38.596Z,37.50
2018-06-21T18:52:51.225Z,34.82
2018-06-21T18:55:03.646Z,35.75
2018-06-21T18:57:16.154Z,35.31
2018-06-21T18:59:28.556Z,34.06
2018-06-21T19:01:40.998Z,33.79
2018-06-21T19:03:53.438Z,34.76
2018-06-21T19:06:10.363Z,32.11
2018-06-21T19:08:28.254Z,35.25
2018-06-21T19:10:46.868Z,34.13
2018-06-21T19:12:59.200Z,34.58
2018-06-21T19:15:12.224Z,34.68
2018-06-21T19:17:24.700Z,32.77
2018-06-21T19:19:37.103Z,34.13
2018-06-21T19:21:49.479Z,34.73
2018-06-21T19:24:01.930Z,34.59
2018-06-21T19:26:14.360Z,34.45
2018-06-21T19:28:26.792Z,34.66
2018-06-21T19:30:39.199Z,32.93
2018-06-21T19:32:51.589Z,34.76
2018-06-21T19:35:04.096Z,33.90
2018-06-21T19:37:16.497Z,35.14
2018-06-21T19:39:28.897Z,34.71
2018-06-21T19:41:41.570Z,34.00
2018-06-21T19:43:53.939Z,32.68
2018-06-21T19:46:06.392Z,32.60
2018-06-21T19:48:18.819Z,33.13
2018-06-21T19:50:31.228Z,35.83
2018-06-21T19:52:43.782Z,33.60
2018-06-21T19:54:56.134Z,33.63
2018-06-21T19:57:08.607Z,35.05
2018-06-21T19:59:21.006Z,33.01
2018-06-21T20:01:33.471Z,33.23
2018-06-21T20:03:46.132Z,33.34
2018-06-21T20:05:58.630Z,32.72
2018-06-21T20:08:11.076Z,33.43
2018-06-21T20:10:23.478Z,33.72
2018-06-21T20:12:36.051Z,34.66
2018-06-21T20:14:48.425Z,34.74
2018-06-21T20:17:00.870Z,36.30
2018-06-21T20:19:15.873Z,34.32
2018-06-21T20:21:28.285Z,36.74
2018-06-21T20:23:42.529Z,36.21
2018-06-21T20:25:54.938Z,34.57
2018-06-21T20:28:07.424Z,33.16
2018-06-21T20:30:19.962Z,34.31
2018-06-21T20:32:32.330Z,33.57
2018-06-21T20:34:44.740Z,34.77
2018-06-21T20:36:57.144Z,34.16
2018-06-21T20:39:10.533Z,33.53
2018-06-21T20:41:23.034Z,34.19
2018-06-21T20:43:35.395Z,35.17
2018-06-21T20:45:47.790Z,34.33
2018-06-21T20:48:00.214Z,35.15
2018-06-21T20:50:12.688Z,35.10
2018-06-21T20:52:27.874Z,35.48
2018-06-21T20:54:40.302Z,34.37
2018-06-21T20:56:52.749Z,34.61
2018-06-21T20:59:05.140Z,34.57
2018-06-21T21:01:17.561Z,34.15
2018-06-21T21:03:30.031Z,34.89
2018-06-21T21:05:42.358Z,36.03
2018-06-21T21:07:54.724Z,35.94
2018-06-21T21:10:08.383Z,35.32
2018-06-21T21:12:20.720Z,35.56
2018-06-21T21:14:33.226Z,36.33
2018-06-21T21:16:45.586Z,36.46
2018-06-21T21:18:58.067Z,36.66
2018-06-21T21:21:10.485Z,36.17
2018-06-21T21:23:22.895Z,36.36
2018-06-21T21:25:35.236Z,37.46
2018-06-21T21:27:47.578Z,36.72
2018-06-21T21:30:00.117Z,36.49
2018-06-21T21:32:12.544Z,36.33
2018-06-21T21:34:24.869Z,37.59
2018-06-21T21:36:37.302Z,37.30
2018-06-21T21:38:49.782Z,38.44
2018-06-21T21:41:02.080Z,37.36
2018-06-21T21:43:14.399Z,38.08
2018-06-21T21:45:26.693Z,37.51
2018-06-21T21:47:39.063Z,38.12
2018-06-21T21:49:51.555Z,37.90
2018-06-21T21:52:03.930Z,38.34
2018-06-21T21:54:16.379Z,38.35
2018-06-21T21:56:28.689Z,37.80
2018-06-21T21:58:40.995Z,37.90
2018-06-21T22:00:54.553Z,38.29
2018-06-21T22:03:06.906Z,38.92
2018-06-21T22:05:19.247Z,39.36
2018-06-21T22:07:31.556Z,37.84
2018-06-21T22:09:44.455Z,39.05
2018-06-21T22:11:56.782Z,39.24
2018-06-21T22:14:09.279Z,39.40
2018-06-21T22:16:21.798Z,39.61
2018-06-21T22:18:34.245Z,39.76
2018-06-21T22:20:46.691Z,39.90
2018-06-21T22:22:59.447Z,39.89
2018-06-21T22:25:11.841Z,40.11
2018-06-21T22:27:24.198Z,41.35
2018-06-21T22:29:36.528Z,40.87
2018-06-21T22:31:49.089Z,41.95
2018-06-21T22:34:01.455Z,40.83
2018-06-21T22:36:13.867Z,38.25
2018-06-21T22:38:26.212Z,39.49
2018-06-21T22:40:38.559Z,39.24
2018-06-21T22:42:50.886Z,39.81
2018-06-21T22:45:03.371Z,39.50
2018-06-21T22:47:15.798Z,40.92
2018-06-21T22:49:28.245Z,41.42
2018-06-21T22:51:40.686Z,41.48
2018-06-21T22:53:53.053Z,40.54
2018-06-21T22:56:05.550Z,41.66
2018-06-21T22:58:18.192Z,41.33
2018-06-21T23:00:30.501Z,41.67
2018-06-21T23:02:42.875Z,42.11
2018-06-21T23:04:55.198Z,42.71
2018-06-21T23:07:07.566Z,42.11
2018-06-21T23:09:20.024Z,42.76
2018-06-21T23:11:32.342Z,43.22
2018-06-21T23:13:44.670Z,43.63
2018-06-21T23:15:57.050Z,43.32
2018-06-21T23:18:09.407Z,44.34
2018-06-21T23:20:21.751Z,43.69
2018-06-21T23:22:34.141Z,45.22
2018-06-21T23:24:46.483Z,45.17
2018-06-21T23:26:58.854Z,44.22
2018-06-21T23:29:11.256Z,45.02
2018-06-21T23:31:23.587Z,44.84
2018-06-21T23:33:35.882Z,45.58
2018-06-21T23:35:48.205Z,45.61
2018-06-21T23:38:00.706Z,46.14
2018-06-21T23:40:13.078Z,44.83
2018-06-21T23:42:25.460Z,45.48
2018-06-21T23:44:37.839Z,45.46
2018-06-21T23:46:50.249Z,45.63
2018-06-21T23:49:02.549Z,45.78
2018-06-21T23:51:14.950Z,46.04
2018-06-21T23:53:27.285Z,45.99
2018-06-21T23:55:39.646Z,45.17
2018-06-21T23:57:51.913Z,46.36
